sensor_id;sensor_type;location;lat;lon;timestamp;pressure;altitude;pressure_sealevel;temperature;humidity
40285;BME280;25997;50.214;19.354;2023-05-17T00:02:49;97393.56;;;12.26;65.60
40285;BME280;25997;50.214;19.354;2023-05-17T00:05:51;97398.78;;;12.21;65.76
40285;BME280;25997;50.214;19.354;2023-05-17T00:08:54;97398.81;;;12.24;65.63
40285;BME280;25997;50.214;19.354;2023-05-17T00:11:56;97404.94;;;12.23;65.53
40285;BME280;25997;50.214;19.354;2023-05-17T00:15:00;97388.19;;;12.15;65.64
40285;BME280;25997;50.214;19.354;2023-05-17T00:18:03;97394.31;;;12.11;65.71
40285;BME280;25997;50.214;19.354;2023-05-17T00:21:05;97404.84;;;12.11;65.89
40285;BME280;25997;50.214;19.354;2023-05-17T00:24:07;97404.75;;;12.09;65.73
40285;BME280;25997;50.214;19.354;2023-05-17T00:27:28;97405.50;;;11.95;66.38
40285;BME280;25997;50.214;19.354;2023-05-17T00:30:51;97401.13;;;11.95;66.22
40285;BME280;25997;50.214;19.354;2023-05-17T00:34:12;97401.94;;;11.91;66.20
40285;BME280;25997;50.214;19.354;2023-05-17T00:37:33;97397.63;;;11.95;66.09
40285;BME280;25997;50.214;19.354;2023-05-17T00:40:54;97395.81;;;11.92;66.07
40285;BME280;25997;50.214;19.354;2023-05-17T00:43:57;97399.34;;;11.94;65.93
40285;BME280;25997;50.214;19.354;2023-05-17T00:47:01;97394.91;;;11.89;65.92
40285;BME280;25997;50.214;19.354;2023-05-17T00:50:05;97400.22;;;11.93;65.92
40285;BME280;25997;50.214;19.354;2023-05-17T00:53:08;97404.56;;;11.88;66.10
40285;BME280;25997;50.214;19.354;2023-05-17T00:56:16;97395.69;;;11.79;66.28
40285;BME280;25997;50.214;19.354;2023-05-17T00:59:20;97386.06;;;11.79;66.24
40285;BME280;25997;50.214;19.354;2023-05-17T01:02:23;97390.44;;;11.80;66.14
40285;BME280;25997;50.214;19.354;2023-05-17T01:05:44;97401.91;;;11.87;66.00
40285;BME280;25997;50.214;19.354;2023-05-17T01:09:06;97398.47;;;11.92;65.76
40285;BME280;25997;50.214;19.354;2023-05-17T01:12:37;97391.41;;;11.91;66.06
40285;BME280;25997;50.214;19.354;2023-05-17T01:16:09;97384.38;;;11.89;65.73
40285;BME280;25997;50.214;19.354;2023-05-17T01:20:00;97391.41;;;11.91;65.88
40285;BME280;25997;50.214;19.354;2023-05-17T01:23:37;97388.78;;;11.88;66.13
40285;BME280;25997;50.214;19.354;2023-05-17T01:27:04;97387.78;;;11.80;66.19
40285;BME280;25997;50.214;19.354;2023-05-17T01:30:25;97387.00;;;11.84;65.89
40285;BME280;25997;50.214;19.354;2023-05-17T01:33:48;97398.31;;;11.79;66.06
40285;BME280;25997;50.214;19.354;2023-05-17T01:37:10;97395.72;;;11.83;65.84
40285;BME280;25997;50.214;19.354;2023-05-17T01:40:33;97392.19;;;11.80;65.90
40285;BME280;25997;50.214;19.354;2023-05-17T01:44:02;97393.00;;;11.74;66.00
40285;BME280;25997;50.214;19.354;2023-05-17T01:47:32;97398.22;;;11.71;66.03
40285;BME280;25997;50.214;19.354;2023-05-17T01:50:59;97400.91;;;11.74;65.82
40285;BME280;25997;50.214;19.354;2023-05-17T01:54:23;97404.31;;;11.67;66.03
40285;BME280;25997;50.214;19.354;2023-05-17T01:57:50;97411.41;;;11.73;65.69
40285;BME280;25997;50.214;19.354;2023-05-17T02:01:01;97410.50;;;11.72;65.64
40285;BME280;25997;50.214;19.354;2023-05-17T02:04:04;97407.00;;;11.70;65.67
40285;BME280;25997;50.214;19.354;2023-05-17T02:07:07;97406.09;;;11.71;65.63
40285;BME280;25997;50.214;19.354;2023-05-17T02:10:10;97407.03;;;11.75;65.42
40285;BME280;25997;50.214;19.354;2023-05-17T02:13:16;97404.47;;;11.79;65.31
40285;BME280;25997;50.214;19.354;2023-05-17T02:16:20;97410.63;;;11.81;65.20
40285;BME280;25997;50.214;19.354;2023-05-17T02:19:23;97409.66;;;11.75;65.20
40285;BME280;25997;50.214;19.354;2023-05-17T02:22:26;97420.25;;;11.81;65.29
40285;BME280;25997;50.214;19.354;2023-05-17T02:25:47;97419.41;;;11.82;65.07
40285;BME280;25997;50.214;19.354;2023-05-17T02:29:08;97417.56;;;11.78;65.20
40285;BME280;25997;50.214;19.354;2023-05-17T02:32:31;97420.13;;;11.70;65.43
40285;BME280;25997;50.214;19.354;2023-05-17T02:35:52;97426.31;;;11.74;65.35
40285;BME280;25997;50.214;19.354;2023-05-17T02:39:13;97422.81;;;11.75;65.43
40285;BME280;25997;50.214;19.354;2023-05-17T02:42:34;97428.09;;;11.75;65.42
40285;BME280;25997;50.214;19.354;2023-05-17T02:45:55;97426.34;;;11.75;65.37
40285;BME280;25997;50.214;19.354;2023-05-17T02:49:17;97428.94;;;11.74;65.67
40285;BME280;25997;50.214;19.354;2023-05-17T02:52:39;97427.25;;;11.79;65.42
40285;BME280;25997;50.214;19.354;2023-05-17T02:56:00;97436.94;;;11.83;65.41
40285;BME280;25997;50.214;19.354;2023-05-17T02:59:21;97428.97;;;11.78;65.32
40285;BME280;25997;50.214;19.354;2023-05-17T03:02:41;97443.97;;;11.85;65.12
40285;BME280;25997;50.214;19.354;2023-05-17T03:06:04;97438.66;;;11.82;65.21
40285;BME280;25997;50.214;19.354;2023-05-17T03:09:25;97445.72;;;11.83;65.36
40285;BME280;25997;50.214;19.354;2023-05-17T03:12:49;97441.22;;;11.75;65.51
40285;BME280;25997;50.214;19.354;2023-05-17T03:16:13;97442.13;;;11.75;65.69
40285;BME280;25997;50.214;19.354;2023-05-17T03:19:35;97437.72;;;11.76;65.60
40285;BME280;25997;50.214;19.354;2023-05-17T03:22:58;97439.50;;;11.77;65.58
40285;BME280;25997;50.214;19.354;2023-05-17T03:26:19;97422.81;;;11.73;65.66
40285;BME280;25997;50.214;19.354;2023-05-17T03:29:44;97431.56;;;11.71;65.73
40285;BME280;25997;50.214;19.354;2023-05-17T03:33:05;97445.47;;;11.64;66.02
40285;BME280;25997;50.214;19.354;2023-05-17T03:36:27;97438.50;;;11.67;66.26
40285;BME280;25997;50.214;19.354;2023-05-17T03:39:50;97434.97;;;11.67;66.31
40285;BME280;25997;50.214;19.354;2023-05-17T03:43:11;97442.88;;;11.67;66.33
40285;BME280;25997;50.214;19.354;2023-05-17T03:46:32;97441.22;;;11.73;66.13
40285;BME280;25997;50.214;19.354;2023-05-17T03:49:53;97444.75;;;11.78;65.92
40285;BME280;25997;50.214;19.354;2023-05-17T03:53:14;97455.38;;;11.84;65.82
40285;BME280;25997;50.214;19.354;2023-05-17T03:56:36;97465.09;;;11.91;65.60
40285;BME280;25997;50.214;19.354;2023-05-17T03:59:57;97473.88;;;11.92;65.62
40285;BME280;25997;50.214;19.354;2023-05-17T04:03:19;97478.28;;;11.94;65.59
40285;BME280;25997;50.214;19.354;2023-05-17T04:06:40;97477.50;;;12.03;65.32
40285;BME280;25997;50.214;19.354;2023-05-17T04:10:01;97481.91;;;12.05;65.28
40285;BME280;25997;50.214;19.354;2023-05-17T04:13:24;97474.84;;;12.01;65.51
40285;BME280;25997;50.214;19.354;2023-05-17T04:16:47;97467.81;;;11.97;65.68
40285;BME280;25997;50.214;19.354;2023-05-17T04:20:09;97472.19;;;11.98;65.84
40285;BME280;25997;50.214;19.354;2023-05-17T04:23:31;97482.69;;;11.95;66.09
40285;BME280;25997;50.214;19.354;2023-05-17T04:26:53;97474.84;;;12.01;66.07
40285;BME280;25997;50.214;19.354;2023-05-17T04:30:19;97467.03;;;12.06;65.90
40285;BME280;25997;50.214;19.354;2023-05-17T04:33:42;97476.50;;;11.90;66.50
40285;BME280;25997;50.214;19.354;2023-05-17T04:36:45;97488.81;;;11.94;66.55
40285;BME280;25997;50.214;19.354;2023-05-17T04:39:47;97494.88;;;11.89;66.80
40285;BME280;25997;50.214;19.354;2023-05-17T04:42:50;97496.69;;;11.93;66.55
40285;BME280;25997;50.214;19.354;2023-05-17T04:45:56;97490.53;;;11.94;66.71
40285;BME280;25997;50.214;19.354;2023-05-17T04:48:59;97497.56;;;11.93;66.56
40285;BME280;25997;50.214;19.354;2023-05-17T04:52:04;97508.00;;;11.89;66.86
40285;BME280;25997;50.214;19.354;2023-05-17T04:55:07;97511.53;;;11.88;66.72
40285;BME280;25997;50.214;19.354;2023-05-17T04:58:30;97517.63;;;11.85;66.72
40285;BME280;25997;50.214;19.354;2023-05-17T05:01:54;97516.72;;;11.83;67.01
40285;BME280;25997;50.214;19.354;2023-05-17T05:05:16;97512.31;;;11.79;67.07
40285;BME280;25997;50.214;19.354;2023-05-17T05:08:39;97513.25;;;11.86;66.86
40285;BME280;25997;50.214;19.354;2023-05-17T05:12:03;97515.91;;;11.86;66.77
40285;BME280;25997;50.214;19.354;2023-05-17T05:15:25;97520.31;;;11.88;66.82
40285;BME280;25997;50.214;19.354;2023-05-17T05:18:52;97518.59;;;11.90;66.78
40285;BME280;25997;50.214;19.354;2023-05-17T05:22:13;97522.06;;;11.89;66.77
40285;BME280;25997;50.214;19.354;2023-05-17T05:25:36;97516.78;;;11.86;66.85
40285;BME280;25997;50.214;19.354;2023-05-17T05:28:59;97523.72;;;11.80;66.93
40285;BME280;25997;50.214;19.354;2023-05-17T05:32:01;97522.78;;;11.78;66.72
40285;BME280;25997;50.214;19.354;2023-05-17T05:35:09;97529.88;;;11.83;66.65
40285;BME280;25997;50.214;19.354;2023-05-17T05:38:11;97535.13;;;11.82;66.39
40285;BME280;25997;50.214;19.354;2023-05-17T05:41:14;97550.88;;;11.80;66.37
40285;BME280;25997;50.214;19.354;2023-05-17T05:44:17;97561.34;;;11.76;66.54
40285;BME280;25997;50.214;19.354;2023-05-17T05:47:20;97563.94;;;11.73;66.44
40285;BME280;25997;50.214;19.354;2023-05-17T05:50:43;97558.56;;;11.67;66.64
40285;BME280;25997;50.214;19.354;2023-05-17T05:54:04;97561.97;;;11.57;66.74
40285;BME280;25997;50.214;19.354;2023-05-17T05:57:26;97566.25;;;11.52;66.77
40285;BME280;25997;50.214;19.354;2023-05-17T06:00:47;97573.25;;;11.51;66.89
40285;BME280;25997;50.214;19.354;2023-05-17T06:04:08;97568.75;;;11.42;66.91
40285;BME280;25997;50.214;19.354;2023-05-17T06:07:31;97578.44;;;11.45;66.79
40285;BME280;25997;50.214;19.354;2023-05-17T06:10:52;97574.88;;;11.41;66.92
40285;BME280;25997;50.214;19.354;2023-05-17T06:14:13;97581.78;;;11.35;67.08
40285;BME280;25997;50.214;19.354;2023-05-17T06:17:34;97584.50;;;11.41;67.21
40285;BME280;25997;50.214;19.354;2023-05-17T06:20:55;97594.13;;;11.39;67.18
40285;BME280;25997;50.214;19.354;2023-05-17T06:24:17;97601.19;;;11.43;67.01
40285;BME280;25997;50.214;19.354;2023-05-17T06:27:38;97600.28;;;11.41;66.76
40285;BME280;25997;50.214;19.354;2023-05-17T06:30:59;97607.19;;;11.36;66.95
40285;BME280;25997;50.214;19.354;2023-05-17T06:34:20;97602.00;;;11.37;66.71
40285;BME280;25997;50.214;19.354;2023-05-17T06:37:41;97606.38;;;11.38;66.83
40285;BME280;25997;50.214;19.354;2023-05-17T06:41:04;97604.56;;;11.36;66.69
40285;BME280;25997;50.214;19.354;2023-05-17T06:44:25;97615.84;;;11.27;67.04
40285;BME280;25997;50.214;19.354;2023-05-17T06:47:46;97617.72;;;11.34;66.93
40285;BME280;25997;50.214;19.354;2023-05-17T06:51:07;97608.84;;;11.29;67.12
40285;BME280;25997;50.214;19.354;2023-05-17T06:54:28;97628.16;;;11.31;67.05
40285;BME280;25997;50.214;19.354;2023-05-17T06:57:51;97625.66;;;11.37;66.67
40285;BME280;25997;50.214;19.354;2023-05-17T07:01:12;97623.81;;;11.33;66.50
40285;BME280;25997;50.214;19.354;2023-05-17T07:04:33;97628.91;;;11.24;67.09
40285;BME280;25997;50.214;19.354;2023-05-17T07:07:54;97644.59;;;11.18;67.05
40285;BME280;25997;50.214;19.354;2023-05-17T07:11:15;97635.72;;;11.13;67.33
40285;BME280;25997;50.214;19.354;2023-05-17T07:14:38;97642.03;;;11.21;67.20
40285;BME280;25997;50.214;19.354;2023-05-17T07:17:40;97649.91;;;11.21;67.12
40285;BME280;25997;50.214;19.354;2023-05-17T07:20:43;97649.94;;;11.24;66.84
40285;BME280;25997;50.214;19.354;2023-05-17T07:23:45;97649.91;;;11.23;66.80
40285;BME280;25997;50.214;19.354;2023-05-17T07:26:48;97655.91;;;11.16;66.80
40285;BME280;25997;50.214;19.354;2023-05-17T07:29:51;97656.66;;;11.09;66.81
40285;BME280;25997;50.214;19.354;2023-05-17T07:32:54;97670.50;;;11.00;67.03
40285;BME280;25997;50.214;19.354;2023-05-17T07:35:56;97670.47;;;10.97;67.12
40285;BME280;25997;50.214;19.354;2023-05-17T07:39:18;97672.19;;;10.97;67.13
40285;BME280;25997;50.214;19.354;2023-05-17T07:42:39;97675.53;;;10.88;67.46
40285;BME280;25997;50.214;19.354;2023-05-17T07:46:01;97683.63;;;11.00;67.08
40285;BME280;25997;50.214;19.354;2023-05-17T07:49:22;97689.78;;;11.02;66.69
40285;BME280;25997;50.214;19.354;2023-05-17T07:52:44;97691.59;;;11.05;66.82
40285;BME280;25997;50.214;19.354;2023-05-17T07:56:05;97696.81;;;11.02;66.72
40285;BME280;25997;50.214;19.354;2023-05-17T07:59:07;97705.53;;;11.01;66.64
40285;BME280;25997;50.214;19.354;2023-05-17T08:02:12;97707.88;;;10.84;66.97
40285;BME280;25997;50.214;19.354;2023-05-17T08:05:14;97706.97;;;10.84;66.84
40285;BME280;25997;50.214;19.354;2023-05-17T08:08:17;97717.41;;;10.81;66.50
40285;BME280;25997;50.214;19.354;2023-05-17T08:11:21;97710.22;;;10.72;66.89
40285;BME280;25997;50.214;19.354;2023-05-17T08:14:23;97723.06;;;10.58;66.71
40285;BME280;25997;50.214;19.354;2023-05-17T08:17:28;97727.00;;;10.37;67.14
40285;BME280;25997;50.214;19.354;2023-05-17T08:20:30;97728.59;;;10.29;67.27
40285;BME280;25997;50.214;19.354;2023-05-17T08:23:33;97734.47;;;10.20;67.38
40285;BME280;25997;50.214;19.354;2023-05-17T08:26:36;97737.84;;;10.13;67.46
40285;BME280;25997;50.214;19.354;2023-05-17T08:29:38;97742.78;;;10.01;67.54
40285;BME280;25997;50.214;19.354;2023-05-17T08:32:42;97741.59;;;9.88;67.65
40285;BME280;25997;50.214;19.354;2023-05-17T08:35:45;97747.81;;;9.93;67.65
40285;BME280;25997;50.214;19.354;2023-05-17T08:38:48;97763.88;;;10.04;67.13
40285;BME280;25997;50.214;19.354;2023-05-17T08:41:51;97763.91;;;10.06;67.19
40285;BME280;25997;50.214;19.354;2023-05-17T08:44:59;97768.31;;;10.08;66.87
40285;BME280;25997;50.214;19.354;2023-05-17T08:48:03;97776.13;;;10.05;66.88
40285;BME280;25997;50.214;19.354;2023-05-17T08:51:07;97775.16;;;10.03;66.85
40285;BME280;25997;50.214;19.354;2023-05-17T08:54:09;97778.72;;;10.04;66.82
40285;BME280;25997;50.214;19.354;2023-05-17T08:57:13;97773.56;;;10.07;66.90
40285;BME280;25997;50.214;19.354;2023-05-17T09:00:20;97774.53;;;10.12;66.87
40285;BME280;25997;50.214;19.354;2023-05-17T09:03:26;97776.03;;;10.02;66.78
40285;BME280;25997;50.214;19.354;2023-05-17T09:06:30;97774.53;;;10.12;66.91
40285;BME280;25997;50.214;19.354;2023-05-17T09:09:34;97771.78;;;10.07;67.05
40285;BME280;25997;50.214;19.354;2023-05-17T09:12:36;97771.63;;;10.02;67.19
40285;BME280;25997;50.214;19.354;2023-05-17T09:15:41;97766.16;;;9.92;67.48
40285;BME280;25997;50.214;19.354;2023-05-17T09:18:52;97772.16;;;9.86;67.77
40285;BME280;25997;50.214;19.354;2023-05-17T09:21:55;97780.97;;;9.90;67.44
40285;BME280;25997;50.214;19.354;2023-05-17T09:24:57;97778.59;;;10.00;67.54
40285;BME280;25997;50.214;19.354;2023-05-17T09:28:05;97793.88;;;10.17;67.14
40285;BME280;25997;50.214;19.354;2023-05-17T09:31:09;97790.50;;;10.22;66.85
40285;BME280;25997;50.214;19.354;2023-05-17T09:34:17;97802.69;;;10.20;66.73
40285;BME280;25997;50.214;19.354;2023-05-17T09:37:38;97806.16;;;10.18;66.91
40285;BME280;25997;50.214;19.354;2023-05-17T09:41:03;97808.00;;;10.22;66.78
40285;BME280;25997;50.214;19.354;2023-05-17T09:44:26;97812.34;;;10.20;66.81
40285;BME280;25997;50.214;19.354;2023-05-17T09:47:47;97811.47;;;10.21;66.68
40285;BME280;25997;50.214;19.354;2023-05-17T09:51:10;97808.72;;;10.15;66.91
40285;BME280;25997;50.214;19.354;2023-05-17T09:54:31;97812.06;;;10.09;67.01
40285;BME280;25997;50.214;19.354;2023-05-17T09:57:41;97809.22;;;10.01;67.31
40285;BME280;25997;50.214;19.354;2023-05-17T10:00:44;97819.06;;;10.09;67.24
40285;BME280;25997;50.214;19.354;2023-05-17T10:03:48;97823.34;;;10.05;67.30
40285;BME280;25997;50.214;19.354;2023-05-17T10:06:53;97817.31;;;10.09;67.42
40285;BME280;25997;50.214;19.354;2023-05-17T10:09:56;97830.16;;;10.00;67.53
40285;BME280;25997;50.214;19.354;2023-05-17T10:12:59;97821.22;;;9.92;67.66
40285;BME280;25997;50.214;19.354;2023-05-17T10:16:04;97823.97;;;9.96;67.51
40285;BME280;25997;50.214;19.354;2023-05-17T10:19:07;97828.63;;;10.07;67.21
40285;BME280;25997;50.214;19.354;2023-05-17T10:22:14;97834.13;;;10.17;67.13
40285;BME280;25997;50.214;19.354;2023-05-17T10:25:18;97840.34;;;10.22;66.99
40285;BME280;25997;50.214;19.354;2023-05-17T10:28:21;97837.69;;;10.19;67.01
40285;BME280;25997;50.214;19.354;2023-05-17T10:31:42;97851.59;;;10.17;66.86
40285;BME280;25997;50.214;19.354;2023-05-17T10:35:05;97848.94;;;10.15;66.66
40285;BME280;25997;50.214;19.354;2023-05-17T10:38:29;97847.53;;;9.95;67.03
40285;BME280;25997;50.214;19.354;2023-05-17T10:41:52;97851.09;;;9.97;67.19
40285;BME280;25997;50.214;19.354;2023-05-17T10:45:14;97857.28;;;10.00;67.08
40285;BME280;25997;50.214;19.354;2023-05-17T10:48:35;97856.59;;;10.06;67.08
40285;BME280;25997;50.214;19.354;2023-05-17T10:51:39;97862.88;;;10.13;67.04
40285;BME280;25997;50.214;19.354;2023-05-17T10:54:43;97860.28;;;10.14;66.75
40285;BME280;25997;50.214;19.354;2023-05-17T10:58:08;97866.50;;;10.18;67.10
40285;BME280;25997;50.214;19.354;2023-05-17T11:04:51;97877.47;;;10.03;66.36
40285;BME280;25997;50.214;19.354;2023-05-17T11:08:11;97877.72;;;9.79;66.33
40285;BME280;25997;50.214;19.354;2023-05-17T11:11:17;97884.56;;;9.42;67.02
40285;BME280;25997;50.214;19.354;2023-05-17T11:14:20;97892.00;;;9.26;67.53
40285;BME280;25997;50.214;19.354;2023-05-17T11:17:24;97890.97;;;9.21;67.55
40285;BME280;25997;50.214;19.354;2023-05-17T11:20:33;97896.28;;;9.24;67.67
40285;BME280;25997;50.214;19.354;2023-05-17T11:23:36;97899.94;;;9.31;67.42
40285;BME280;25997;50.214;19.354;2023-05-17T11:26:44;97895.94;;;9.42;67.21
40285;BME280;25997;50.214;19.354;2023-05-17T11:29:46;97901.78;;;9.34;67.28
40285;BME280;25997;50.214;19.354;2023-05-17T11:32:50;97897.00;;;9.49;67.06
40285;BME280;25997;50.214;19.354;2023-05-17T11:35:53;97909.25;;;9.51;66.74
40285;BME280;25997;50.214;19.354;2023-05-17T11:39:09;97899.69;;;9.52;66.65
40285;BME280;25997;50.214;19.354;2023-05-17T11:42:23;97898.75;;;9.50;66.83
40285;BME280;25997;50.214;19.354;2023-05-17T11:45:26;97901.28;;;9.47;66.81
40285;BME280;25997;50.214;19.354;2023-05-17T11:48:29;97902.09;;;9.44;66.81
40285;BME280;25997;50.214;19.354;2023-05-17T11:51:50;97902.94;;;9.43;66.94
40285;BME280;25997;50.214;19.354;2023-05-17T11:55:13;97912.50;;;9.41;66.78
40285;BME280;25997;50.214;19.354;2023-05-17T11:58:36;97910.91;;;9.48;66.92
40285;BME280;25997;50.214;19.354;2023-05-17T12:01:57;97912.38;;;9.38;66.79
40285;BME280;25997;50.214;19.354;2023-05-17T12:05:19;97915.88;;;9.37;66.84
40285;BME280;25997;50.214;19.354;2023-05-17T12:08:43;97922.03;;;9.39;66.83
40285;BME280;25997;50.214;19.354;2023-05-17T12:12:05;97925.81;;;9.49;66.71
40285;BME280;25997;50.214;19.354;2023-05-17T12:15:17;97920.13;;;9.65;66.55
40285;BME280;25997;50.214;19.354;2023-05-17T12:18:19;97928.88;;;9.65;66.43
40285;BME280;25997;50.214;19.354;2023-05-17T12:21:22;97940.13;;;9.60;66.27
40285;BME280;25997;50.214;19.354;2023-05-17T12:24:35;97943.78;;;9.66;66.33
40285;BME280;25997;50.214;19.354;2023-05-17T12:27:38;97947.16;;;9.62;66.16
40285;BME280;25997;50.214;19.354;2023-05-17T12:30:42;97943.59;;;9.60;66.62
40285;BME280;25997;50.214;19.354;2023-05-17T12:33:45;97956.13;;;9.70;66.32
40285;BME280;25997;50.214;19.354;2023-05-17T12:36:51;97945.78;;;9.75;66.08
40285;BME280;25997;50.214;19.354;2023-05-17T12:39:54;97951.16;;;9.79;66.20
40285;BME280;25997;50.214;19.354;2023-05-17T12:43:01;97953.56;;;9.73;66.18
40285;BME280;25997;50.214;19.354;2023-05-17T12:46:10;97950.00;;;9.70;65.99
40285;BME280;25997;50.214;19.354;2023-05-17T12:49:13;97955.06;;;9.64;66.32
40285;BME280;25997;50.214;19.354;2023-05-17T12:52:17;97960.06;;;9.55;66.38
40285;BME280;25997;50.214;19.354;2023-05-17T12:55:19;97962.69;;;9.55;66.49
40285;BME280;25997;50.214;19.354;2023-05-17T12:58:21;97971.97;;;9.44;66.75
40285;BME280;25997;50.214;19.354;2023-05-17T13:01:31;97980.00;;;9.50;66.61
40285;BME280;25997;50.214;19.354;2023-05-17T13:04:52;97977.53;;;9.56;66.73
40285;BME280;25997;50.214;19.354;2023-05-17T13:08:20;97972.16;;;9.51;66.65
40285;BME280;25997;50.214;19.354;2023-05-17T13:11:43;97978.16;;;9.47;66.57
40285;BME280;25997;50.214;19.354;2023-05-17T13:14:51;97981.00;;;9.53;66.80
40285;BME280;25997;50.214;19.354;2023-05-17T13:17:56;97978.53;;;9.59;66.67
40285;BME280;25997;50.214;19.354;2023-05-17T13:21:00;97982.72;;;9.53;66.45
40285;BME280;25997;50.214;19.354;2023-05-17T13:24:02;97973.72;;;9.45;66.38
40285;BME280;25997;50.214;19.354;2023-05-17T13:27:05;97984.69;;;9.32;66.68
40285;BME280;25997;50.214;19.354;2023-05-17T13:30:09;97990.97;;;9.37;66.55
40285;BME280;25997;50.214;19.354;2023-05-17T13:33:13;97997.94;;;9.36;66.36
40285;BME280;25997;50.214;19.354;2023-05-17T13:36:15;98003.16;;;9.36;66.37
40285;BME280;25997;50.214;19.354;2023-05-17T13:39:18;98005.94;;;9.41;66.39
40285;BME280;25997;50.214;19.354;2023-05-17T13:42:39;98004.53;;;9.23;66.19
40285;BME280;25997;50.214;19.354;2023-05-17T13:45:42;98024.59;;;9.23;66.45
40285;BME280;25997;50.214;19.354;2023-05-17T13:48:46;98020.63;;;9.07;66.42
40285;BME280;25997;50.214;19.354;2023-05-17T13:51:48;98020.59;;;9.06;66.28
40285;BME280;25997;50.214;19.354;2023-05-17T13:54:51;98029.88;;;8.96;66.39
40285;BME280;25997;50.214;19.354;2023-05-17T13:57:53;98028.72;;;8.88;66.43
40285;BME280;25997;50.214;19.354;2023-05-17T14:00:56;98037.34;;;8.86;66.41
40285;BME280;25997;50.214;19.354;2023-05-17T14:04:18;98045.19;;;8.86;66.41
40285;BME280;25997;50.214;19.354;2023-05-17T14:07:40;98041.91;;;8.91;66.31
40285;BME280;25997;50.214;19.354;2023-05-17T14:11:04;98043.72;;;8.92;66.29
40285;BME280;25997;50.214;19.354;2023-05-17T14:14:06;98050.63;;;8.90;66.44
40285;BME280;25997;50.214;19.354;2023-05-17T14:17:09;98057.69;;;8.93;66.45
40285;BME280;25997;50.214;19.354;2023-05-17T14:20:13;98061.56;;;9.04;66.31
40285;BME280;25997;50.214;19.354;2023-05-17T14:23:16;98070.56;;;9.13;66.27
40285;BME280;25997;50.214;19.354;2023-05-17T14:26:18;98060.97;;;9.14;66.22
40285;BME280;25997;50.214;19.354;2023-05-17T14:29:21;98066.41;;;9.20;66.28
40285;BME280;25997;50.214;19.354;2023-05-17T14:32:24;98071.66;;;9.20;66.22
40285;BME280;25997;50.214;19.354;2023-05-17T14:35:46;98067.53;;;9.26;66.11
40285;BME280;25997;50.214;19.354;2023-05-17T14:39:07;98078.97;;;9.30;66.26
40285;BME280;25997;50.214;19.354;2023-05-17T14:42:28;98074.66;;;9.32;66.30
40285;BME280;25997;50.214;19.354;2023-05-17T14:45:49;98075.84;;;9.42;66.23
40285;BME280;25997;50.214;19.354;2023-05-17T14:49:10;98081.03;;;9.40;66.44
40285;BME280;25997;50.214;19.354;2023-05-17T14:52:33;98081.16;;;9.45;66.11
40285;BME280;25997;50.214;19.354;2023-05-17T14:55:56;98081.25;;;9.46;66.12
40285;BME280;25997;50.214;19.354;2023-05-17T14:59:17;98082.25;;;9.51;66.19
40285;BME280;25997;50.214;19.354;2023-05-17T15:02:19;98083.13;;;9.52;66.39
40285;BME280;25997;50.214;19.354;2023-05-17T15:05:22;98081.28;;;9.48;66.44
40285;BME280;25997;50.214;19.354;2023-05-17T15:08:27;98086.69;;;9.54;66.31
40285;BME280;25997;50.214;19.354;2023-05-17T15:11:29;98092.06;;;9.58;66.26
40285;BME280;25997;50.214;19.354;2023-05-17T15:14:32;98091.19;;;9.58;66.07
40285;BME280;25997;50.214;19.354;2023-05-17T15:17:34;98098.22;;;9.59;66.26
40285;BME280;25997;50.214;19.354;2023-05-17T15:20:37;98099.03;;;9.58;66.30
40285;BME280;25997;50.214;19.354;2023-05-17T15:23:41;98109.63;;;9.61;66.31
40285;BME280;25997;50.214;19.354;2023-05-17T15:26:43;98106.66;;;9.49;66.17
40285;BME280;25997;50.214;19.354;2023-05-17T15:29:46;98111.81;;;9.47;66.32
40285;BME280;25997;50.214;19.354;2023-05-17T15:32:48;98117.03;;;9.46;66.26
40285;BME280;25997;50.214;19.354;2023-05-17T15:35:51;98117.56;;;9.36;66.50
40285;BME280;25997;50.214;19.354;2023-05-17T15:38:55;98116.63;;;9.34;66.39
40285;BME280;25997;50.214;19.354;2023-05-17T15:41:57;98117.50;;;9.33;66.60
40285;BME280;25997;50.214;19.354;2023-05-17T15:44:59;98129.53;;;9.27;66.66
40285;BME280;25997;50.214;19.354;2023-05-17T15:48:02;98133.13;;;9.31;66.54
40285;BME280;25997;50.214;19.354;2023-05-17T15:51:06;98137.56;;;9.32;66.48
40285;BME280;25997;50.214;19.354;2023-05-17T15:54:10;98138.50;;;9.34;66.45
40285;BME280;25997;50.214;19.354;2023-05-17T15:57:12;98137.75;;;9.38;66.45
40285;BME280;25997;50.214;19.354;2023-05-17T16:00:15;98135.25;;;9.43;66.46
40285;BME280;25997;50.214;19.354;2023-05-17T16:03:17;98137.09;;;9.45;66.53
40285;BME280;25997;50.214;19.354;2023-05-17T16:06:20;98139.03;;;9.51;66.36
40285;BME280;25997;50.214;19.354;2023-05-17T16:09:42;98151.88;;;9.43;66.35
40285;BME280;25997;50.214;19.354;2023-05-17T16:13:04;98142.59;;;9.53;66.48
40285;BME280;25997;50.214;19.354;2023-05-17T16:16:25;98141.88;;;9.58;66.14
40285;BME280;25997;50.214;19.354;2023-05-17T16:19:47;98147.13;;;9.58;66.13
40285;BME280;25997;50.214;19.354;2023-05-17T16:23:08;98149.75;;;9.58;66.16
40285;BME280;25997;50.214;19.354;2023-05-17T16:26:31;98149.88;;;9.63;66.21
40285;BME280;25997;50.214;19.354;2023-05-17T16:29:52;98154.19;;;9.61;66.15
40285;BME280;25997;50.214;19.354;2023-05-17T16:33:13;98153.22;;;9.57;66.14
40285;BME280;25997;50.214;19.354;2023-05-17T16:36:34;98156.94;;;9.64;66.11
40285;BME280;25997;50.214;19.354;2023-05-17T16:39:55;98153.59;;;9.69;65.99
40285;BME280;25997;50.214;19.354;2023-05-17T16:43:17;98158.81;;;9.68;66.18
40285;BME280;25997;50.214;19.354;2023-05-17T16:46:38;98170.22;;;9.70;66.13
40285;BME280;25997;50.214;19.354;2023-05-17T16:49:59;98167.59;;;9.70;65.99
40285;BME280;25997;50.214;19.354;2023-05-17T16:53:21;98167.72;;;9.73;66.08
40285;BME280;25997;50.214;19.354;2023-05-17T16:56:41;98171.13;;;9.70;66.06